< < Back
Terminal Aerodrome Forecast


Current Version              Previous Versions:   1  2  3  4  5  6  7  8  9  

Terminal Aerodrome Forecast

926
FTUS42 KGSP 260530
TAFGSP
TAF
KGSP 260530Z 2606/2706 20006KT P6SM VCSH SCT050 BKN110
     FM260900 25003KT P6SM BKN030
      TEMPO 2609/2613 -RA
     FM261300 25004KT P6SM BKN050
     FM261600 28008KT P6SM BKN090
     FM261800 32010G17KT P6SM BKN080
     FM262200 32011G19KT P6SM SCT250=

Latest METAR

682
SAUS70 KWBC 261400 RRC
MTRGSP
METAR KGSP 261353Z 27007KT 10SM FEW095 06/04 A2965 RMK AO2 SLP041
T00610039


USA.gov is the U.S. government's official web portal to all federal, state and local government web resources and services.